Time;durP1;ratioP1;P1;durP2;ratioP2;P2;SDS_P1;SDS_P2;PMS_P1;PMS_P2;Temp;Humidity;BMP_temperature;BMP_pressure;BME280_temperature;BME280_humidity;BME280_pressure;Samples;Min_cycle;Max_cycle;Signal;HPM_P1;HPM_P2
2024/02/03 00:01:02;;;;;;;2.70;0.70;;;10.00;34.00;;;;;;5095634;28;20192;-71
2024/02/03 00:03:29;;;;;;;1.88;0.80;;;10.00;33.10;;;;;;5095656;28;20591;-71
2024/02/03 00:05:57;;;;;;;1.70;0.80;;;10.00;32.80;;;;;;5095530;28;20275;-71
2024/02/03 00:08:24;;;;;;;2.28;0.70;;;10.00;32.40;;;;;;5095512;28;20193;-71
2024/02/03 00:11:07;;;;;;;1.70;0.70;;;10.00;32.90;;;;;;5095477;28;20189;-71
2024/02/03 00:13:34;;;;;;;2.55;0.70;;;10.00;33.20;;;;;;5095639;28;20181;-71
2024/02/03 00:16:03;;;;;;;1.98;0.70;;;9.90;34.10;;;;;;5095388;28;20216;-71
2024/02/03 00:18:34;;;;;;;1.95;0.70;;;9.90;33.00;;;;;;5094825;28;20274;-71
2024/02/03 00:21:04;;;;;;;2.00;0.73;;;9.90;33.60;;;;;;5095382;28;20200;-71
2024/02/03 00:23:35;;;;;;;1.90;1.00;;;9.90;34.10;;;;;;5095279;28;20226;-71
2024/02/03 00:26:02;;;;;;;3.25;0.80;;;9.80;34.60;;;;;;5094903;28;20205;-71
2024/02/03 00:28:29;;;;;;;1.90;0.70;;;9.70;35.00;;;;;;5092826;28;20264;-71
2024/02/03 00:30:56;;;;;;;1.90;0.88;;;9.70;35.50;;;;;;5094752;28;20698;-71
2024/02/03 00:33:23;;;;;;;1.90;0.95;;;9.60;35.80;;;;;;5094664;28;20221;-71
2024/02/03 00:35:50;;;;;;;1.95;0.80;;;9.60;35.90;;;;;;5093554;28;20224;-71
2024/02/03 00:38:18;;;;;;;1.80;0.90;;;9.50;35.90;;;;;;5094856;28;20632;-71
2024/02/03 00:40:50;;;;;;;2.80;1.40;;;9.50;36.10;;;;;;5094917;28;20217;-71
2024/02/03 00:43:17;;;;;;;2.30;1.30;;;9.40;36.40;;;;;;5095269;28;20184;-71
2024/02/03 00:45:44;;;;;;;3.10;1.70;;;9.40;36.60;;;;;;5094897;28;20246;-71
2024/02/03 00:48:12;;;;;;;3.63;1.48;;;9.30;37.10;;;;;;5094486;28;20237;-71
2024/02/03 00:50:39;;;;;;;4.07;1.52;;;9.30;37.30;;;;;;5094416;28;20192;-71
2024/02/03 00:53:06;;;;;;;4.53;1.88;;;9.20;37.60;;;;;;5094788;28;20279;-71
2024/02/03 00:55:34;;;;;;;3.95;1.90;;;9.20;38.30;;;;;;5094607;28;20190;-71
2024/02/03 00:58:01;;;;;;;2.22;1.02;;;9.10;38.80;;;;;;5094096;28;20295;-71
2024/02/03 01:00:28;;;;;;;2.42;1.13;;;9.10;37.40;;;;;;5094274;28;20276;-71
2024/02/03 01:02:55;;;;;;;2.53;1.45;;;9.10;37.80;;;;;;5094543;28;20216;-71
2024/02/03 01:05:24;;;;;;;2.25;1.35;;;9.00;38.20;;;;;;5094037;28;20280;-71
2024/02/03 01:07:50;;;;;;;2.35;1.10;;;9.00;38.50;;;;;;5094057;28;20189;-71
2024/02/03 01:10:18;;;;;;;3.22;1.38;;;9.00;38.50;;;;;;5089033;28;20261;-71
2024/02/03 01:12:46;;;;;;;4.45;0.95;;;9.00;38.30;;;;;;5074078;28;20186;-71
2024/02/03 01:15:13;;;;;;;2.00;1.00;;;9.00;38.10;;;;;;5073931;28;20292;-71
2024/02/03 01:17:40;;;;;;;1.90;0.90;;;8.90;37.80;;;;;;5076938;28;20321;-71
2024/02/03 01:20:12;;;;;;;1.90;0.80;;;8.90;37.60;;;;;;5094106;28;20576;-71
2024/02/03 01:22:39;;;;;;;1.85;0.75;;;8.90;37.90;;;;;;5094344;28;20573;-71
2024/02/03 01:25:07;;;;;;;2.25;1.15;;;9.00;37.20;;;;;;5093686;28;20260;-71
2024/02/03 01:27:34;;;;;;;2.33;1.00;;;9.10;36.60;;;;;;5094128;28;20603;-70
2024/02/03 01:30:02;;;;;;;2.08;0.82;;;9.20;36.40;;;;;;5093263;28;20643;-71
2024/02/03 01:32:30;;;;;;;1.70;0.60;;;9.30;36.10;;;;;;5093691;28;20226;-71
2024/02/03 01:34:57;;;;;;;2.30;0.80;;;9.40;36.10;;;;;;5093614;28;20185;-71
2024/02/03 01:37:25;;;;;;;2.25;0.70;;;9.40;36.10;;;;;;5093529;28;20209;-71
2024/02/03 01:39:52;;;;;;;2.00;0.70;;;9.30;36.20;;;;;;5093586;28;20191;-71
2024/02/03 01:42:19;;;;;;;2.00;0.70;;;9.40;36.50;;;;;;5093929;28;20216;-71
2024/02/03 01:44:46;;;;;;;1.90;0.70;;;9.30;36.30;;;;;;5093797;28;20695;-71
2024/02/03 01:47:16;;;;;;;1.90;0.60;;;9.30;35.80;;;;;;5093319;28;20185;-71
2024/02/03 01:49:56;;;;;;;1.70;0.60;;;9.30;36.00;;;;;;5093606;28;20193;-71
2024/02/03 01:52:25;;;;;;;2.63;0.80;;;9.30;36.30;;;;;;5093386;28;20268;-71
2024/02/03 01:54:52;;;;;;;2.03;0.85;;;9.30;36.50;;;;;;5093578;28;20192;-71
2024/02/03 01:57:21;;;;;;;1.77;0.70;;;9.20;36.80;;;;;;5093436;28;20296;-71
2024/02/03 01:59:48;;;;;;;1.80;0.70;;;9.20;36.70;;;;;;5093676;28;20258;-71
2024/02/03 02:02:16;;;;;;;1.85;0.90;;;9.30;36.50;;;;;;5093438;28;20623;-71
2024/02/03 02:04:43;;;;;;;1.70;0.75;;;9.30;36.60;;;;;;5093653;28;20276;-71
2024/02/03 02:07:10;;;;;;;1.70;0.70;;;9.30;36.90;;;;;;5093205;28;20260;-70
2024/02/03 02:09:37;;;;;;;1.77;0.80;;;9.40;36.40;;;;;;5093263;28;20268;-71
2024/02/03 02:12:05;;;;;;;1.70;0.70;;;9.40;36.30;;;;;;5093641;28;20276;-70
2024/02/03 02:14:32;;;;;;;1.80;0.88;;;9.50;36.00;;;;;;5093272;28;20277;-71
2024/02/03 02:16:59;;;;;;;1.75;0.70;;;9.40;35.80;;;;;;5093475;28;20272;-71
2024/02/03 02:19:27;;;;;;;2.22;1.02;;;9.50;35.80;;;;;;5093178;28;20300;-71
2024/02/03 02:21:56;;;;;;;1.80;0.82;;;9.50;36.00;;;;;;5093086;28;20264;-71
2024/02/03 02:24:22;;;;;;;1.70;0.70;;;9.40;36.00;;;;;;5093386;28;20236;-71
2024/02/03 02:26:49;;;;;;;2.10;0.95;;;9.50;36.20;;;;;;5092963;28;20226;-71
2024/02/03 02:29:17;;;;;;;1.80;0.70;;;9.50;35.80;;;;;;5093071;28;20280;-71
2024/02/03 02:31:44;;;;;;;1.80;0.90;;;9.50;36.10;;;;;;5091710;28;20178;-71
2024/02/03 02:34:11;;;;;;;1.90;0.73;;;9.40;36.30;;;;;;5091899;28;20264;-71
2024/02/03 02:36:38;;;;;;;2.00;0.80;;;9.40;36.70;;;;;;5093064;28;20734;-71
2024/02/03 02:39:06;;;;;;;1.85;0.80;;;9.40;37.20;;;;;;5093011;28;20292;-71
2024/02/03 02:41:37;;;;;;;1.70;0.70;;;9.30;37.80;;;;;;5093336;28;20276;-71
2024/02/03 02:44:04;;;;;;;1.80;0.70;;;9.20;38.40;;;;;;5092734;28;20615;-71
2024/02/03 02:46:31;;;;;;;2.10;0.90;;;9.20;38.20;;;;;;5092535;28;20273;-71
2024/02/03 02:48:58;;;;;;;2.53;0.70;;;9.10;38.40;;;;;;5092465;28;20569;-71
2024/02/03 02:51:25;;;;;;;2.17;0.70;;;9.10;38.70;;;;;;5092674;28;20280;-71
2024/02/03 02:53:52;;;;;;;1.77;0.85;;;9.00;38.70;;;;;;5092906;28;20565;-71
2024/02/03 02:56:20;;;;;;;2.00;0.80;;;9.00;38.90;;;;;;5092945;28;20272;-71
2024/02/03 02:58:47;;;;;;;2.00;0.80;;;8.90;39.20;;;;;;5092793;28;20292;-71
2024/02/03 03:01:14;;;;;;;4.57;0.82;;;8.90;40.10;;;;;;5096513;28;20272;-71
2024/02/03 03:03:41;;;;;;;2.70;1.00;;;8.80;39.90;;;;;;5095628;28;20555;-70
2024/02/03 03:06:08;;;;;;;1.90;0.90;;;8.70;40.20;;;;;;5096407;28;20280;-71
2024/02/03 03:08:35;;;;;;;2.50;1.23;;;8.60;40.20;;;;;;5096589;28;20193;-71
2024/02/03 03:11:02;;;;;;;2.70;1.20;;;8.60;39.90;;;;;;5096380;28;20220;-71
2024/02/03 03:13:30;;;;;;;1.83;0.80;;;8.60;40.30;;;;;;5096067;28;20264;-71
2024/02/03 03:15:57;;;;;;;1.88;1.08;;;8.60;40.30;;;;;;5095902;28;20272;-71
2024/02/03 03:18:24;;;;;;;2.03;0.82;;;8.50;40.30;;;;;;5095681;28;20598;-71
2024/02/03 03:20:51;;;;;;;1.90;0.77;;;8.50;40.40;;;;;;5095803;28;20184;-71
2024/02/03 03:23:18;;;;;;;1.90;0.70;;;8.50;40.50;;;;;;5095764;28;20283;-71
2024/02/03 03:25:45;;;;;;;1.90;0.70;;;8.40;40.40;;;;;;5096110;28;20216;-71
2024/02/03 03:28:16;;;;;;;2.10;0.82;;;8.40;40.60;;;;;;5096229;28;20272;-71
2024/02/03 03:30:45;;;;;;;3.50;0.82;;;8.40;40.70;;;;;;5096003;28;20231;-71
2024/02/03 03:33:12;;;;;;;1.90;0.90;;;8.40;40.10;;;;;;5095873;28;20710;-71
2024/02/03 03:35:38;;;;;;;2.03;0.82;;;8.40;40.10;;;;;;5095540;28;20272;-71
2024/02/03 03:38:06;;;;;;;3.88;0.90;;;8.30;40.20;;;;;;5095776;28;20606;-71
2024/02/03 03:40:32;;;;;;;1.92;0.77;;;8.30;40.70;;;;;;5095712;28;20194;-71
2024/02/03 03:42:59;;;;;;;2.87;0.90;;;8.30;40.90;;;;;;5094333;28;20181;-71
2024/02/03 03:45:26;;;;;;;2.35;1.00;;;8.20;41.10;;;;;;5095586;28;20519;-71
2024/02/03 03:47:54;;;;;;;2.00;0.80;;;8.20;41.30;;;;;;5095157;28;20280;-70
2024/02/03 03:50:21;;;;;;;1.90;0.70;;;8.30;40.70;;;;;;5075109;28;20183;-71
2024/02/03 03:52:50;;;;;;;2.00;0.80;;;8.30;40.70;;;;;;5075381;28;20277;-71
2024/02/03 03:55:17;;;;;;;1.95;0.90;;;8.20;41.00;;;;;;5074975;28;20277;-71
2024/02/03 03:57:44;;;;;;;2.28;0.90;;;8.10;41.10;;;;;;5075183;28;20187;-71
2024/02/03 04:00:13;;;;;;;2.83;0.90;;;8.10;41.20;;;;;;5095259;28;20591;-71
2024/02/03 04:02:40;;;;;;;1.70;0.70;;;8.00;41.50;;;;;;5095036;28;20189;-71
2024/02/03 04:05:09;;;;;;;1.80;0.88;;;7.90;41.30;;;;;;5094723;28;20294;-71
2024/02/03 04:07:36;;;;;;;2.20;0.70;;;7.90;41.80;;;;;;5095171;28;20181;-71
2024/02/03 04:10:03;;;;;;;1.98;0.70;;;7.90;42.00;;;;;;5095059;28;20589;-71
2024/02/03 04:12:30;;;;;;;3.78;0.75;;;7.80;42.00;;;;;;5094791;28;20181;-71
2024/02/03 04:14:57;;;;;;;1.83;0.70;;;7.70;41.90;;;;;;5095065;28;20276;-71
2024/02/03 04:17:24;;;;;;;1.90;0.68;;;7.70;41.70;;;;;;5094821;28;20611;-71
2024/02/03 04:19:51;;;;;;;1.80;0.77;;;7.70;41.30;;;;;;5093224;28;20284;-71
2024/02/03 04:22:20;;;;;;;2.17;0.98;;;7.70;41.20;;;;;;5080513;28;20178;-71
2024/02/03 04:24:47;;;;;;;2.40;0.95;;;7.80;39.60;;;;;;5074276;28;20687;-71
2024/02/03 04:27:14;;;;;;;2.05;0.95;;;7.80;39.50;;;;;;5074974;28;20221;-71
2024/02/03 04:29:41;;;;;;;2.03;1.02;;;7.90;38.20;;;;;;5074419;28;20281;-70
2024/02/03 04:32:08;;;;;;;1.92;0.88;;;7.90;37.40;;;;;;5074510;28;20182;-71
2024/02/03 04:34:34;;;;;;;1.80;0.80;;;7.90;38.60;;;;;;5090865;28;20596;-70
2024/02/03 04:37:01;;;;;;;1.90;0.73;;;8.00;38.30;;;;;;5074804;28;20193;-71
2024/02/03 04:39:30;;;;;;;5.40;0.80;;;8.00;37.00;;;;;;5073946;28;20300;-71
2024/02/03 04:41:57;;;;;;;3.10;0.88;;;8.10;36.50;;;;;;5082914;28;20699;-71
2024/02/03 04:44:24;;;;;;;2.20;0.75;;;8.10;36.30;;;;;;5093713;28;20281;-71
2024/02/03 04:46:51;;;;;;;1.60;0.60;;;8.20;34.40;;;;;;5094227;28;20193;-71
2024/02/03 04:49:18;;;;;;;2.92;1.00;;;8.20;34.90;;;;;;5087743;28;20713;-70
2024/02/03 04:51:45;;;;;;;2.92;0.82;;;8.30;35.20;;;;;;5075155;28;20610;-71
2024/02/03 04:54:12;;;;;;;2.00;0.70;;;8.30;34.70;;;;;;5094606;28;20268;-71
2024/02/03 04:56:40;;;;;;;1.80;0.73;;;8.30;34.50;;;;;;5094335;28;20185;-71
2024/02/03 04:59:07;;;;;;;1.80;0.73;;;8.30;34.70;;;;;;5094073;28;20300;-71
2024/02/03 05:01:36;;;;;;;1.77;0.70;;;8.40;35.10;;;;;;5094160;28;20288;-71
2024/02/03 05:04:08;;;;;;;2.42;0.80;;;8.40;34.90;;;;;;5094074;28;20182;-71
2024/02/03 05:06:35;;;;;;;2.72;0.85;;;8.40;34.40;;;;;;5076018;28;20174;-71
2024/02/03 05:09:03;;;;;;;1.95;0.80;;;8.40;34.00;;;;;;5073773;28;20217;-71
2024/02/03 05:11:30;;;;;;;1.80;0.70;;;8.40;33.60;;;;;;5073527;28;20636;-71
2024/02/03 05:13:58;;;;;;;1.70;0.70;;;8.40;33.40;;;;;;5073952;28;20221;-71
2024/02/03 05:16:26;;;;;;;1.90;0.82;;;8.40;33.70;;;;;;5073896;28;20273;-71
2024/02/03 05:18:53;;;;;;;2.30;0.90;;;8.40;33.90;;;;;;5073438;28;20221;-71
2024/02/03 05:21:20;;;;;;;3.10;1.42;;;8.40;33.60;;;;;;5080824;28;20586;-71
2024/02/03 05:23:47;;;;;;;2.20;0.80;;;8.40;34.60;;;;;;5093851;28;20263;-71
2024/02/03 05:26:13;;;;;;;2.65;1.13;;;8.40;34.10;;;;;;5093533;28;20224;-71
2024/02/03 05:28:40;;;;;;;2.55;1.27;;;8.30;34.10;;;;;;5093463;28;20729;-71
2024/02/03 05:31:09;;;;;;;3.58;2.00;;;8.30;34.40;;;;;;5093797;28;20273;-71
2024/02/03 05:33:36;;;;;;;2.70;1.10;;;8.30;35.10;;;;;;5092969;28;20178;-71
2024/02/03 05:36:03;;;;;;;2.95;1.85;;;8.30;34.90;;;;;;5093708;28;20583;-71
2024/02/03 05:38:30;;;;;;;3.08;1.40;;;8.30;34.50;;;;;;5093109;28;20288;-71
2024/02/03 05:40:57;;;;;;;2.53;1.10;;;8.30;35.10;;;;;;5093348;28;20709;-71
2024/02/03 05:43:24;;;;;;;1.92;1.00;;;8.30;33.80;;;;;;5081743;28;20582;-71
2024/02/03 05:45:51;;;;;;;4.95;1.60;;;8.40;33.60;;;;;;5087504;28;20264;-71
2024/02/03 05:48:19;;;;;;;3.47;2.20;;;8.40;34.70;;;;;;5093285;28;20272;-71
2024/02/03 05:50:46;;;;;;;4.38;1.63;;;8.30;34.60;;;;;;5093244;28;20646;-71
2024/02/03 05:53:13;;;;;;;2.10;1.10;;;8.30;33.90;;;;;;5083901;28;20573;-71
2024/02/03 05:55:40;;;;;;;2.95;1.05;;;8.40;32.40;;;;;;5073344;28;20585;-71
2024/02/03 05:58:07;;;;;;;1.90;0.80;;;8.40;32.00;;;;;;5074029;28;20605;-71
2024/02/03 06:00:34;;;;;;;3.10;1.60;;;8.40;33.40;;;;;;5073154;28;20599;-71
2024/02/03 06:03:02;;;;;;;3.75;1.50;;;8.40;34.10;;;;;;5073310;28;20277;-71
2024/02/03 06:05:30;;;;;;;3.03;1.98;;;8.40;34.30;;;;;;5073170;28;20273;-71
2024/02/03 06:07:57;;;;;;;2.08;1.20;;;8.40;34.30;;;;;;5074574;28;20217;-71
2024/02/03 06:10:24;;;;;;;2.13;1.23;;;8.40;34.30;;;;;;5092981;28;20711;-71
2024/02/03 06:12:51;;;;;;;3.60;1.13;;;8.40;34.30;;;;;;5093459;28;20272;-71
2024/02/03 06:15:17;;;;;;;2.65;1.05;;;8.40;34.40;;;;;;5093354;28;20274;-71
2024/02/03 06:17:45;;;;;;;5.07;1.20;;;8.30;34.60;;;;;;5092859;28;20670;-71
2024/02/03 06:20:12;;;;;;;2.75;1.33;;;8.30;34.80;;;;;;5092966;28;20711;-71
2024/02/03 06:22:41;;;;;;;6.22;1.70;;;8.30;35.20;;;;;;5088803;28;20269;-71
2024/02/03 06:25:08;;;;;;;2.53;1.10;;;8.20;35.40;;;;;;5073094;28;20218;-71
2024/02/03 06:27:35;;;;;;;2.90;1.08;;;8.10;35.00;;;;;;5072964;28;20277;-71
2024/02/03 06:30:02;;;;;;;2.10;0.95;;;8.20;34.90;;;;;;5069982;28;20711;-71
2024/02/03 06:32:28;;;;;;;2.00;0.80;;;8.20;33.70;;;;;;5072471;28;20268;-71
2024/02/03 06:34:55;;;;;;;2.35;0.90;;;8.20;34.30;;;;;;5094929;28;20276;-71
2024/02/03 06:37:22;;;;;;;2.75;1.42;;;8.20;35.00;;;;;;5095125;28;20260;-71
2024/02/03 06:39:50;;;;;;;3.53;1.20;;;8.20;35.60;;;;;;5096192;28;20546;-71
2024/02/03 06:42:17;;;;;;;2.80;1.30;;;8.10;35.70;;;;;;5095930;28;20698;-71
2024/02/03 06:44:44;;;;;;;2.40;1.40;;;8.10;35.80;;;;;;5095261;28;20726;-71
2024/02/03 06:47:12;;;;;;;2.72;1.50;;;8.10;36.00;;;;;;5096232;28;20212;-71
2024/02/03 06:49:39;;;;;;;2.75;1.25;;;8.00;36.20;;;;;;5096125;28;20191;-71
2024/02/03 06:52:06;;;;;;;2.05;1.17;;;8.00;36.40;;;;;;5093332;28;20236;-71
2024/02/03 06:54:33;;;;;;;3.25;1.10;;;7.90;36.60;;;;;;5075161;28;20277;-71
2024/02/03 06:57:02;;;;;;;2.42;1.60;;;7.90;37.00;;;;;;5075264;28;20277;-71
2024/02/03 06:59:28;;;;;;;3.03;1.25;;;7.80;37.20;;;;;;5077615;28;20300;-71
2024/02/03 07:01:55;;;;;;;2.60;1.50;;;7.80;37.40;;;;;;5088092;28;20261;-71
2024/02/03 07:04:22;;;;;;;2.30;1.17;;;7.70;37.30;;;;;;5075270;28;20651;-71
2024/02/03 07:06:51;;;;;;;3.80;1.40;;;7.70;37.50;;;;;;5075385;28;20226;-71
2024/02/03 07:09:18;;;;;;;5.47;1.38;;;7.70;37.30;;;;;;5075333;28;20222;-71
2024/02/03 07:11:45;;;;;;;2.40;1.10;;;7.80;37.20;;;;;;5075460;28;20226;-71
2024/02/03 07:14:13;;;;;;;2.42;1.20;;;7.80;37.10;;;;;;5084456;28;20270;-71
2024/02/03 07:16:40;;;;;;;3.10;1.00;;;7.90;36.90;;;;;;5095501;28;20526;-71
2024/02/03 07:19:07;;;;;;;2.90;1.15;;;8.00;36.80;;;;;;5094857;28;20311;-70
2024/02/03 07:21:34;;;;;;;2.40;1.10;;;8.10;37.00;;;;;;5095586;28;20276;-70
2024/02/03 07:24:01;;;;;;;2.75;1.55;;;8.20;37.20;;;;;;5095105;28;20310;-71
2024/02/03 07:26:28;;;;;;;2.97;1.60;;;8.20;37.20;;;;;;5093922;28;20269;-71
2024/02/03 07:28:55;;;;;;;4.15;1.90;;;8.30;37.70;;;;;;5092459;28;20280;-71
2024/02/03 07:31:30;;;;;;;4.15;2.05;;;8.40;38.00;;;;;;5083493;28;20276;-71
2024/02/03 07:33:58;;;;;;;5.15;2.45;;;8.40;37.50;;;;;;5094880;28;20242;-71
2024/02/03 07:36:25;;;;;;;5.43;2.72;;;8.40;36.90;;;;;;5092006;28;20193;-70
2024/02/03 07:38:52;;;;;;;4.07;2.00;;;8.40;36.60;;;;;;5082797;28;20277;-71
2024/02/03 07:41:19;;;;;;;5.88;3.00;;;8.50;36.20;;;;;;5074671;28;20273;-71
2024/02/03 07:43:46;;;;;;;5.55;2.35;;;8.60;36.50;;;;;;5083156;28;20190;-71
2024/02/03 07:46:13;;;;;;;8.00;3.50;;;8.70;36.00;;;;;;5073777;28;20644;-71
2024/02/03 07:48:42;;;;;;;3.50;1.65;;;8.80;35.20;;;;;;5074591;28;20280;-71
2024/02/03 07:51:09;;;;;;;2.83;1.33;;;9.00;34.90;;;;;;5087916;28;20267;-71
2024/02/03 07:53:35;;;;;;;2.22;1.05;;;9.20;34.40;;;;;;5093926;28;20174;-71
2024/02/03 07:56:03;;;;;;;4.05;1.13;;;9.30;33.90;;;;;;5094620;28;20224;-71
2024/02/03 07:58:30;;;;;;;3.80;1.13;;;9.40;34.00;;;;;;5094633;28;20277;-71
2024/02/03 08:00:58;;;;;;;2.40;1.27;;;9.70;34.10;;;;;;5094575;28;20210;-71
2024/02/03 08:03:24;;;;;;;2.20;0.95;;;10.10;32.70;;;;;;5094558;28;20280;-71
2024/02/03 08:05:53;;;;;;;2.88;1.30;;;10.40;32.90;;;;;;5094407;28;20272;-71
2024/02/03 08:08:20;;;;;;;3.30;1.80;;;11.00;32.30;;;;;;5094349;28;20745;-71
2024/02/03 08:10:47;;;;;;;2.93;1.50;;;11.40;32.20;;;;;;5087559;28;20198;-71
2024/02/03 08:13:14;;;;;;;3.27;1.37;;;11.90;31.30;;;;;;5093576;28;20427;-71
2024/02/03 08:15:41;;;;;;;3.17;1.60;;;12.50;32.10;;;;;;5093342;28;20469;-71
2024/02/03 08:18:08;;;;;;;17.83;8.83;;;13.00;31.10;;;;;;5093586;28;21047;-72
2024/02/03 08:20:35;;;;;;;11.30;6.40;;;13.40;29.70;;;;;;5089608;28;21019;-72
2024/02/03 08:23:04;;;;;;;3.73;2.27;;;13.90;29.50;;;;;;5081153;28;20514;-71
2024/02/03 08:25:31;;;;;;;3.90;2.53;;;14.40;28.30;;;;;;5085067;28;20551;-72
2024/02/03 08:27:58;;;;;;;5.00;3.70;;;15.00;26.30;;;;;;5093154;28;20526;-72
2024/02/03 08:30:24;;;;;;;2.90;1.63;;;15.50;23.40;;;;;;5093039;28;20523;-72
2024/02/03 08:32:51;;;;;;;2.20;1.00;;;15.90;21.10;;;;;;5093226;28;20815;-72
2024/02/03 08:35:19;;;;;;;3.37;2.07;;;16.20;19.80;;;;;;5093771;28;20522;-72
2024/02/03 08:37:46;;;;;;;2.67;1.10;;;16.50;19.50;;;;;;5093201;28;20436;-71
2024/02/03 08:40:18;;;;;;;2.10;0.77;;;16.90;18.50;;;;;;5092922;28;20886;-72
2024/02/03 08:42:45;;;;;;;2.70;1.10;;;17.30;19.40;;;;;;5093492;28;20437;-72
2024/02/03 08:45:12;;;;;;;3.90;1.80;;;17.70;18.40;;;;;;5092732;28;20421;-72
2024/02/03 08:47:39;;;;;;;2.03;0.80;;;18.00;17.90;;;;;;5087923;28;20487;-71
2024/02/03 08:50:07;;;;;;;2.10;0.97;;;18.40;17.30;;;;;;5073016;28;20439;-72
2024/02/03 08:52:34;;;;;;;2.20;0.97;;;18.80;16.90;;;;;;5079057;28;20518;-72
2024/02/03 08:55:01;;;;;;;2.20;0.80;;;19.10;16.80;;;;;;5071903;28;20514;-71
2024/02/03 08:57:29;;;;;;;2.00;0.80;;;19.30;15.60;;;;;;5083158;28;20453;-72
2024/02/03 08:59:56;;;;;;;5.23;1.80;;;19.50;15.90;;;;;;5081061;28;20559;-72
2024/02/03 09:02:23;;;;;;;3.40;0.80;;;19.80;15.60;;;;;;5078296;28;20511;-72
2024/02/03 09:04:50;;;;;;;3.17;0.70;;;20.10;15.20;;;;;;5085952;28;20452;-72
2024/02/03 09:07:17;;;;;;;2.57;0.70;;;20.40;14.30;;;;;;5077173;28;20515;-72
2024/02/03 09:09:44;;;;;;;2.00;0.60;;;20.60;14.30;;;;;;5093099;28;20436;-72
2024/02/03 09:12:11;;;;;;;1.80;0.60;;;20.80;14.30;;;;;;5091523;28;20459;-72
2024/02/03 09:14:39;;;;;;;1.70;0.50;;;21.10;14.50;;;;;;5072920;28;20511;-71
2024/02/03 09:17:06;;;;;;;1.97;0.57;;;21.40;14.10;;;;;;5092742;28;20495;-72
2024/02/03 09:19:33;;;;;;;2.23;0.60;;;21.60;13.80;;;;;;5092566;28;20558;-72
2024/02/03 09:22:00;;;;;;;2.33;0.97;;;21.80;14.20;;;;;;5092141;28;20514;-71
2024/02/03 09:24:27;;;;;;;2.10;0.70;;;22.10;13.90;;;;;;5087168;28;20440;-72
2024/02/03 09:26:54;;;;;;;2.73;0.50;;;22.30;13.40;;;;;;5090115;28;20458;-72
2024/02/03 09:29:21;;;;;;;1.80;0.50;;;22.40;13.20;;;;;;5092245;28;20514;-71
2024/02/03 09:31:49;;;;;;;2.10;0.60;;;22.50;13.80;;;;;;5072865;28;20526;-72
2024/02/03 09:34:16;;;;;;;1.70;0.50;;;22.70;14.40;;;;;;5092267;28;20436;-72
2024/02/03 09:36:43;;;;;;;1.70;0.50;;;23.00;14.50;;;;;;5092284;28;20431;-72
2024/02/03 09:39:10;;;;;;;2.00;0.60;;;23.30;15.10;;;;;;5091650;28;20852;-72
2024/02/03 09:41:37;;;;;;;2.10;0.70;;;23.60;14.40;;;;;;5092089;28;20557;-72
2024/02/03 09:44:05;;;;;;;2.00;0.53;;;23.80;14.50;;;;;;5092367;28;20438;-72
2024/02/03 09:46:32;;;;;;;1.77;0.60;;;24.10;13.80;;;;;;5092618;28;20811;-72
2024/02/03 09:49:01;;;;;;;2.00;0.67;;;24.20;14.00;;;;;;5091911;28;20522;-71
2024/02/03 09:51:30;;;;;;;2.07;1.00;;;24.40;13.30;;;;;;5081140;28;20519;-72
2024/02/03 09:53:59;;;;;;;1.70;0.50;;;24.60;14.10;;;;;;5072335;28;20424;-72
2024/02/03 09:56:26;;;;;;;2.97;0.73;;;24.90;14.10;;;;;;5072478;28;20754;-72
2024/02/03 09:58:53;;;;;;;1.70;0.50;;;25.20;14.20;;;;;;5072108;28;20446;-72
2024/02/03 10:01:20;;;;;;;2.10;0.60;;;25.50;12.90;;;;;;5072052;28;21043;-72
2024/02/03 10:03:56;;;;;;;1.80;0.50;;;25.60;13.40;;;;;;5072298;28;20429;-72
2024/02/03 10:06:25;;;;;;;2.40;0.70;;;25.80;13.70;;;;;;5088997;28;20919;-72
2024/02/03 10:08:53;;;;;;;2.00;0.50;;;26.00;13.20;;;;;;5091248;28;20467;-71
2024/02/03 10:11:20;;;;;;;1.70;0.40;;;26.10;13.20;;;;;;5075701;28;20815;-72
2024/02/03 10:13:49;;;;;;;1.70;0.50;;;26.30;13.70;;;;;;5075944;28;20781;-72
2024/02/03 10:16:22;;;;;;;1.70;0.50;;;26.50;14.00;;;;;;5079132;28;20437;-72
2024/02/03 10:18:49;;;;;;;1.63;0.50;;;26.70;14.80;;;;;;5096693;28;20549;-72
2024/02/03 10:21:16;;;;;;;3.37;0.50;;;26.90;14.70;;;;;;5096567;28;20467;-72
2024/02/03 10:23:52;;;;;;;1.87;0.53;;;27.00;14.90;;;;;;5096362;28;20522;-72
2024/02/03 10:26:19;;;;;;;1.70;0.50;;;27.10;14.80;;;;;;5095646;28;20419;-72
2024/02/03 10:28:46;;;;;;;2.10;0.60;;;27.20;14.70;;;;;;5095631;28;20518;-72
2024/02/03 10:31:13;;;;;;;2.17;1.00;;;27.30;15.50;;;;;;5090091;28;20499;-72
2024/02/03 10:33:40;;;;;;;2.00;0.70;;;27.40;14.90;;;;;;5079415;28;20908;-72
2024/02/03 10:36:07;;;;;;;1.90;0.70;;;27.50;14.00;;;;;;5095755;28;21007;-72
2024/02/03 10:38:35;;;;;;;1.70;0.57;;;27.60;13.30;;;;;;5095794;28;20431;-73
2024/02/03 10:41:04;;;;;;;1.87;0.60;;;27.70;13.00;;;;;;5095273;28;20553;-73
2024/02/03 10:43:34;;;;;;;2.23;0.80;;;27.80;12.50;;;;;;5095695;28;20730;-71
2024/02/03 10:46:07;;;;;;;1.70;0.50;;;27.90;13.00;;;;;;5075564;28;20424;-72
2024/02/03 10:48:37;;;;;;;1.87;0.50;;;27.90;12.70;;;;;;5079084;28;20411;-72
2024/02/03 10:51:08;;;;;;;1.80;0.60;;;28.00;12.00;;;;;;5085449;28;20463;-72
2024/02/03 10:53:43;;;;;;;2.10;0.60;;;28.00;12.10;;;;;;5077132;28;20505;-72
2024/02/03 10:56:13;;;;;;;1.80;0.53;;;28.00;11.80;;;;;;5096274;28;20472;-72
2024/02/03 10:58:41;;;;;;;2.00;0.50;;;27.90;12.80;;;;;;5086936;28;20523;-72
2024/02/03 11:01:12;;;;;;;1.80;0.50;;;28.10;12.90;;;;;;5074977;28;20579;-72
2024/02/03 11:03:40;;;;;;;2.07;0.70;;;28.30;13.00;;;;;;5079569;28;20526;-72
2024/02/03 11:06:09;;;;;;;1.70;0.50;;;28.40;13.80;;;;;;5080305;28;20905;-72
2024/02/03 11:08:37;;;;;;;2.07;0.60;;;28.50;13.70;;;;;;5074641;28;20515;-72
2024/02/03 11:11:04;;;;;;;1.80;0.60;;;28.70;13.50;;;;;;5075624;28;20536;-72
2024/02/03 11:13:39;;;;;;;3.03;0.60;;;28.80;13.70;;;;;;5090973;28;20474;-72
2024/02/03 11:16:06;;;;;;;3.37;0.70;;;28.90;14.40;;;;;;5095676;28;20431;-72
2024/02/03 11:18:39;;;;;;;1.70;0.50;;;29.00;14.10;;;;;;5095197;28;20494;-72
2024/02/03 11:21:07;;;;;;;2.00;0.57;;;29.20;14.70;;;;;;5095238;28;20419;-72
2024/02/03 11:23:35;;;;;;;1.93;0.60;;;29.50;14.20;;;;;;5094989;28;20431;-72
2024/02/03 11:26:02;;;;;;;1.93;0.60;;;29.70;14.00;;;;;;5094605;28;20435;-72
2024/02/03 11:28:33;;;;;;;1.73;0.50;;;29.80;13.40;;;;;;5095594;28;20509;-72
2024/02/03 11:31:01;;;;;;;2.83;0.80;;;29.90;13.40;;;;;;5095444;28;20490;-72
2024/02/03 11:33:29;;;;;;;1.90;0.50;;;30.00;13.20;;;;;;5095560;28;20439;-72
2024/02/03 11:36:00;;;;;;;2.10;0.80;;;30.10;12.60;;;;;;5094331;28;20526;-71
2024/02/03 11:38:27;;;;;;;1.77;0.53;;;30.20;12.60;;;;;;5075013;28;20515;-72
2024/02/03 11:40:56;;;;;;;2.10;0.70;;;30.30;12.80;;;;;;5081555;28;20474;-72
2024/02/03 11:43:24;;;;;;;1.70;0.50;;;30.40;13.10;;;;;;5095434;28;20466;-72
2024/02/03 11:45:55;;;;;;;2.07;0.80;;;30.50;13.10;;;;;;5083300;28;20432;-72
2024/02/03 11:48:22;;;;;;;2.00;0.63;;;30.60;13.40;;;;;;5082618;28;20459;-72
2024/02/03 11:50:49;;;;;;;1.83;0.60;;;30.60;13.20;;;;;;5086705;28;20836;-73
2024/02/03 11:53:27;;;;;;;2.00;0.60;;;30.50;13.50;;;;;;5073992;28;20517;-72
2024/02/03 11:55:56;;;;;;;1.70;0.50;;;30.50;13.10;;;;;;5078722;28;20476;-72
2024/02/03 11:58:28;;;;;;;2.57;0.60;;;30.50;13.40;;;;;;5095058;28;20435;-72
2024/02/03 12:01:08;;;;;;;1.90;0.60;;;30.40;13.70;;;;;;5093870;28;20470;-72
2024/02/03 12:03:36;;;;;;;1.70;0.50;;;30.30;13.40;;;;;;5095133;28;20423;-72
2024/02/03 12:06:03;;;;;;;1.90;0.60;;;30.20;13.30;;;;;;5094483;28;20436;-71
2024/02/03 12:08:31;;;;;;;1.87;0.53;;;30.10;13.80;;;;;;5094177;28;20460;-72
2024/02/03 12:10:58;;;;;;;2.00;0.70;;;30.00;13.70;;;;;;5094403;28;20470;-71
2024/02/03 12:13:25;;;;;;;1.63;0.40;;;30.00;13.90;;;;;;5094876;28;21053;-72
2024/02/03 12:15:53;;;;;;;2.00;0.70;;;30.00;13.60;;;;;;5094534;28;20427;-72
2024/02/03 12:18:22;;;;;;;1.70;0.50;;;30.00;13.80;;;;;;5086227;28;20452;-72
2024/02/03 12:20:49;;;;;;;2.10;0.70;;;29.90;14.40;;;;;;5084186;28;20504;-72
2024/02/03 12:23:16;;;;;;;1.87;0.70;;;29.80;14.20;;;;;;5094415;28;20438;-72
2024/02/03 12:25:44;;;;;;;2.10;0.70;;;29.80;14.10;;;;;;5093551;28;20515;-72
2024/02/03 12:28:13;;;;;;;2.00;0.70;;;29.70;13.90;;;;;;5093663;28;20488;-72
2024/02/03 12:31:00;;;;;;;1.90;0.60;;;29.60;14.20;;;;;;5094726;28;20502;-72
2024/02/03 12:33:34;;;;;;;1.80;0.60;;;29.50;14.00;;;;;;5084454;28;20428;-73
2024/02/03 12:36:01;;;;;;;1.90;0.60;;;29.40;14.60;;;;;;5083163;28;20423;-73
2024/02/03 12:38:33;;;;;;;2.67;0.70;;;29.20;14.60;;;;;;5086725;28;20940;-72
2024/02/03 12:41:00;;;;;;;2.30;0.60;;;29.10;14.90;;;;;;5094645;28;20431;-72
2024/02/03 12:43:27;;;;;;;1.90;0.63;;;29.10;14.50;;;;;;5094627;28;20529;-72
2024/02/03 12:45:54;;;;;;;1.70;0.50;;;29.00;14.70;;;;;;5094505;28;20514;-73
2024/02/03 12:48:21;;;;;;;1.80;0.50;;;28.90;14.70;;;;;;5094278;28;20839;-72
2024/02/03 12:50:51;;;;;;;2.00;0.60;;;28.80;15.10;;;;;;5093957;28;20521;-73
2024/02/03 12:53:19;;;;;;;2.50;0.60;;;28.80;15.30;;;;;;5094656;28;20423;-73
2024/02/03 12:55:46;;;;;;;1.70;0.53;;;28.70;15.70;;;;;;5094574;28;20473;-73